createdAt,value
2023-01-17T00:00:46.545Z,75.98
2023-01-17T00:04:33.264Z,75.77
2023-01-17T00:08:18.029Z,75.79
2023-01-17T00:11:45.944Z,75.89
2023-01-17T00:15:17.400Z,75.86
2023-01-17T00:19:05.576Z,75.72
2023-01-17T00:22:47.927Z,75.47
2023-01-17T00:26:20.901Z,75.44
2023-01-17T00:29:48.868Z,75.38
2023-01-17T00:33:15.062Z,75.46
2023-01-17T00:36:41.193Z,75.44
2023-01-17T00:40:09.440Z,75.53
2023-01-17T00:43:55.229Z,75.65
2023-01-17T00:47:43.121Z,75.35
2023-01-17T00:51:28.168Z,75.64
2023-01-17T00:55:14.948Z,75.46
2023-01-17T00:59:00.114Z,75.82
2023-01-17T01:02:45.223Z,75.89
2023-01-17T01:06:30.505Z,76.02
2023-01-17T01:10:15.764Z,75.88
2023-01-17T01:14:00.855Z,76.15
2023-01-17T01:17:44.997Z,75.91
2023-01-17T01:21:29.735Z,75.88
2023-01-17T01:25:14.844Z,75.68
2023-01-17T01:28:58.797Z,75.81
2023-01-17T01:32:43.329Z,75.57
2023-01-17T01:36:12.999Z,75.62
2023-01-17T01:39:40.200Z,75.46
2023-01-17T01:43:08.929Z,75.69
2023-01-17T01:46:41.575Z,75.12
2023-01-17T01:50:14.030Z,75.54
2023-01-17T01:53:50.250Z,75.63
2023-01-17T01:57:24.056Z,75.62
2023-01-17T02:00:54.305Z,75.41
2023-01-17T02:04:24.749Z,75.62
2023-01-17T02:07:59.332Z,75.58
2023-01-17T02:11:27.262Z,75.78
2023-01-17T02:14:54.552Z,75.89
2023-01-17T02:18:32.915Z,75.82
2023-01-17T02:22:08.968Z,75.78
2023-01-17T02:25:55.146Z,76.04
2023-01-17T02:30:00.769Z,75.95
2023-01-17T02:33:36.119Z,76.15
2023-01-17T02:37:09.515Z,76.31
2023-01-17T02:40:42.354Z,76.10
2023-01-17T02:44:13.322Z,76.18
2023-01-17T02:47:40.849Z,75.93
2023-01-17T02:51:33.574Z,76.19
2023-01-17T02:55:22.908Z,76.20
2023-01-17T02:59:05.371Z,76.02
2023-01-17T03:02:42.359Z,76.15
2023-01-17T03:06:16.396Z,76.21
2023-01-17T03:09:46.090Z,75.89
2023-01-17T03:13:17.406Z,76.38
2023-01-17T03:16:44.644Z,76.43
2023-01-17T03:20:13.593Z,76.66
2023-01-17T03:23:40.816Z,76.39
2023-01-17T03:27:07.623Z,76.54
2023-01-17T03:30:35.120Z,76.78
2023-01-17T03:34:02.227Z,76.47
2023-01-17T03:37:28.988Z,76.68
2023-01-17T03:40:55.780Z,76.63
2023-01-17T03:44:22.662Z,76.67
2023-01-17T03:47:49.131Z,76.64
2023-01-17T03:51:16.054Z,76.66
2023-01-17T03:54:43.084Z,76.42
2023-01-17T03:58:11.078Z,76.47
2023-01-17T04:01:37.968Z,76.43
2023-01-17T04:05:05.569Z,76.69
2023-01-17T04:08:31.946Z,76.70
2023-01-17T04:11:58.523Z,76.90
2023-01-17T04:15:25.437Z,76.83
2023-01-17T04:18:52.405Z,76.82
2023-01-17T04:22:18.940Z,77.19
2023-01-17T04:25:45.676Z,76.92
2023-01-17T04:29:12.619Z,77.05
2023-01-17T04:32:39.274Z,77.01
2023-01-17T04:36:06.242Z,77.10
2023-01-17T04:39:33.324Z,77.15
2023-01-17T04:42:59.734Z,77.27
2023-01-17T04:46:27.045Z,77.19
2023-01-17T04:49:54.088Z,77.18
2023-01-17T04:53:20.527Z,77.21
2023-01-17T04:56:47.070Z,77.32
2023-01-17T05:00:17.375Z,77.30
2023-01-17T05:03:44.055Z,77.57
2023-01-17T05:07:10.547Z,77.37
2023-01-17T05:10:37.320Z,77.45
2023-01-17T05:14:04.195Z,77.34
2023-01-17T05:17:31.233Z,77.42
2023-01-17T05:21:01.994Z,77.37
2023-01-17T05:24:28.931Z,77.18
2023-01-17T05:27:56.748Z,77.30
2023-01-17T05:31:23.465Z,77.25
2023-01-17T05:34:51.724Z,76.90
2023-01-17T05:38:19.072Z,77.18
2023-01-17T05:41:45.547Z,77.21
2023-01-17T05:45:16.984Z,77.24
2023-01-17T05:48:43.994Z,77.24
2023-01-17T05:52:11.314Z,77.39
2023-01-17T05:55:38.943Z,77.42
2023-01-17T05:59:05.562Z,77.41
2023-01-17T06:02:32.889Z,77.32
2023-01-17T06:05:59.491Z,77.40
2023-01-17T06:09:26.656Z,77.39
2023-01-17T06:13:01.532Z,77.33
2023-01-17T06:16:28.067Z,77.11
2023-01-17T06:19:55.181Z,77.24
2023-01-17T06:23:21.872Z,77.29
2023-01-17T06:26:48.801Z,77.25
2023-01-17T06:30:17.911Z,77.31
2023-01-17T06:33:44.514Z,77.36
2023-01-17T06:37:12.002Z,77.16
2023-01-17T06:40:38.301Z,77.16
2023-01-17T06:44:05.506Z,77.11
2023-01-17T06:47:32.757Z,77.59
2023-01-17T06:51:00.218Z,77.46
2023-01-17T06:54:27.334Z,77.39
2023-01-17T06:57:55.085Z,77.30
2023-01-17T07:01:22.148Z,77.26
2023-01-17T07:04:49.282Z,77.40
2023-01-17T07:08:17.164Z,77.46
2023-01-17T07:11:45.575Z,77.38
2023-01-17T07:15:14.793Z,77.47
2023-01-17T07:18:40.978Z,77.47
2023-01-17T07:22:08.140Z,77.68
2023-01-17T07:25:35.280Z,77.54
2023-01-17T07:29:04.030Z,77.42
2023-01-17T07:32:30.841Z,77.22
2023-01-17T07:35:57.526Z,77.10
2023-01-17T07:39:27.664Z,77.38
2023-01-17T07:43:01.657Z,77.41
2023-01-17T07:46:28.830Z,77.06
2023-01-17T07:49:55.415Z,77.35
2023-01-17T07:53:22.634Z,77.66
2023-01-17T07:56:49.462Z,77.74
2023-01-17T08:00:18.338Z,77.71
2023-01-17T08:03:45.917Z,77.71
2023-01-17T08:07:14.184Z,77.80
2023-01-17T08:10:41.041Z,77.81
2023-01-17T08:14:07.959Z,77.86
2023-01-17T08:17:34.845Z,78.01
2023-01-17T08:21:02.634Z,78.08
2023-01-17T08:24:30.324Z,77.92
2023-01-17T08:28:00.872Z,77.89
2023-01-17T08:31:28.355Z,77.83
2023-01-17T08:34:56.750Z,78.03
2023-01-17T08:38:24.803Z,77.55
2023-01-17T08:41:52.007Z,77.63
2023-01-17T08:45:18.670Z,77.81
2023-01-17T08:48:45.389Z,77.84
2023-01-17T08:52:15.838Z,77.66
2023-01-17T08:55:42.414Z,77.63
2023-01-17T08:59:09.553Z,77.63
2023-01-17T09:02:36.543Z,77.57
2023-01-17T09:06:09.583Z,77.50
2023-01-17T09:09:36.253Z,77.53
2023-01-17T09:13:07.034Z,77.93
2023-01-17T09:16:34.233Z,77.80
2023-01-17T09:20:04.288Z,77.87
2023-01-17T09:23:33.066Z,77.88
2023-01-17T09:27:00.314Z,77.98
2023-01-17T09:30:27.184Z,77.70
2023-01-17T09:34:01.015Z,77.73
2023-01-17T09:37:28.910Z,77.66
2023-01-17T09:40:57.821Z,77.96
2023-01-17T09:44:33.039Z,77.54
2023-01-17T09:48:07.383Z,77.60
2023-01-17T09:51:33.910Z,77.94
2023-01-17T09:55:04.975Z,77.52
2023-01-17T09:58:42.910Z,77.70
2023-01-17T10:02:26.700Z,77.39
2023-01-17T10:05:57.655Z,77.68
2023-01-17T10:09:47.103Z,77.83
2023-01-17T10:13:30.243Z,77.79
2023-01-17T10:17:05.851Z,77.74
2023-01-17T10:20:48.524Z,77.76
2023-01-17T10:24:47.114Z,77.63
2023-01-17T10:28:18.673Z,77.69
2023-01-17T10:31:52.038Z,77.71
2023-01-17T10:35:25.074Z,77.58
2023-01-17T10:38:53.869Z,77.51
2023-01-17T10:42:27.469Z,77.55
2023-01-17T10:45:57.426Z,77.35
2023-01-17T10:49:27.466Z,77.54
2023-01-17T10:53:01.575Z,77.29
2023-01-17T10:56:31.421Z,77.28
2023-01-17T11:00:01.969Z,77.27
2023-01-17T11:03:29.102Z,77.09
2023-01-17T11:07:14.401Z,77.03
2023-01-17T11:10:43.705Z,76.97
2023-01-17T11:14:20.845Z,76.95
2023-01-17T11:17:53.398Z,77.08
2023-01-17T11:21:23.584Z,76.96
2023-01-17T11:24:55.734Z,77.06
2023-01-17T11:28:30.775Z,77.05
2023-01-17T11:31:58.275Z,76.85
2023-01-17T11:35:26.868Z,76.76
2023-01-17T11:39:03.601Z,76.67
2023-01-17T11:42:38.230Z,76.74
2023-01-17T11:46:16.052Z,76.65
2023-01-17T11:49:43.969Z,76.68
2023-01-17T11:53:21.318Z,76.47
2023-01-17T11:56:47.957Z,76.45
2023-01-17T12:00:21.033Z,76.51
2023-01-17T12:04:08.332Z,76.44
2023-01-17T12:07:45.605Z,76.34
2023-01-17T12:11:22.265Z,76.28
2023-01-17T12:15:01.396Z,76.34
2023-01-17T12:18:45.519Z,76.28
2023-01-17T12:22:33.992Z,76.40
2023-01-17T12:26:19.851Z,76.20
2023-01-17T12:29:58.959Z,76.03
2023-01-17T12:33:35.953Z,76.01
2023-01-17T12:37:09.542Z,75.98
2023-01-17T12:40:38.506Z,75.77
2023-01-17T12:44:05.211Z,75.77
2023-01-17T12:47:34.845Z,75.74
2023-01-17T12:51:06.792Z,75.62
2023-01-17T12:54:41.174Z,75.69
2023-01-17T12:58:16.619Z,75.53
2023-01-17T13:01:45.294Z,75.58
2023-01-17T13:05:23.973Z,75.47
2023-01-17T13:08:53.140Z,75.36
2023-01-17T13:12:22.849Z,75.34
2023-01-17T13:15:51.739Z,75.26
2023-01-17T13:19:26.487Z,75.23
2023-01-17T13:22:57.081Z,74.94
2023-01-17T13:26:33.888Z,75.01
2023-01-17T13:30:13.194Z,75.05
2023-01-17T13:33:50.243Z,74.85
2023-01-17T13:37:47.331Z,74.77
2023-01-17T13:41:48.400Z,74.72
2023-01-17T13:45:23.581Z,74.51
2023-01-17T13:49:11.329Z,74.44
2023-01-17T13:52:38.955Z,74.30
2023-01-17T13:56:17.028Z,74.26
2023-01-17T13:59:44.016Z,74.24
2023-01-17T14:03:14.607Z,74.25
2023-01-17T14:06:45.554Z,74.33
2023-01-17T14:10:32.283Z,74.26
2023-01-17T14:14:00.710Z,74.20
2023-01-17T14:17:56.872Z,73.93
2023-01-17T14:21:27.346Z,73.84
2023-01-17T14:25:10.154Z,73.73
2023-01-17T14:28:37.006Z,73.78
2023-01-17T14:32:07.769Z,73.75
2023-01-17T14:35:37.559Z,73.67
2023-01-17T14:39:04.731Z,73.71
2023-01-17T14:42:34.507Z,73.63
2023-01-17T14:46:03.768Z,73.66
2023-01-17T14:49:30.663Z,73.57
2023-01-17T14:53:16.654Z,73.58
2023-01-17T14:56:46.818Z,73.46
2023-01-17T15:00:19.177Z,73.46
2023-01-17T15:03:48.410Z,73.52
2023-01-17T15:07:20.369Z,73.73
2023-01-17T15:10:56.333Z,73.70
2023-01-17T15:14:28.475Z,73.60
2023-01-17T15:18:09.432Z,73.65
2023-01-17T15:21:42.636Z,73.71
2023-01-17T15:25:15.449Z,73.72
2023-01-17T15:28:45.060Z,73.43
2023-01-17T15:32:21.996Z,73.49
2023-01-17T15:35:49.039Z,73.46
2023-01-17T15:39:25.706Z,73.36
2023-01-17T15:43:01.744Z,73.41
2023-01-17T15:46:34.736Z,73.14
2023-01-17T15:50:03.624Z,73.24
2023-01-17T15:53:39.422Z,73.28
2023-01-17T15:57:18.358Z,73.18
2023-01-17T16:00:47.289Z,73.17
2023-01-17T16:04:30.494Z,73.02
2023-01-17T16:08:19.082Z,72.94
2023-01-17T16:11:49.669Z,72.95
2023-01-17T16:15:19.289Z,73.00
2023-01-17T16:18:51.107Z,72.83
2023-01-17T16:22:21.141Z,72.67
2023-01-17T16:25:56.851Z,72.78
2023-01-17T16:29:24.066Z,72.71
2023-01-17T16:32:54.188Z,72.56
2023-01-17T16:36:23.372Z,72.55
2023-01-17T16:39:54.140Z,72.35
2023-01-17T16:43:31.714Z,72.46
2023-01-17T16:47:03.344Z,72.60
2023-01-17T16:50:48.883Z,72.40
2023-01-17T16:54:15.794Z,72.40
2023-01-17T16:57:43.783Z,72.33
2023-01-17T17:01:17.976Z,72.43
2023-01-17T17:04:48.008Z,72.40
2023-01-17T17:08:16.716Z,72.35
2023-01-17T17:11:44.576Z,72.17
2023-01-17T17:15:13.479Z,72.05
2023-01-17T17:18:40.520Z,72.05
2023-01-17T17:22:07.951Z,72.04
2023-01-17T17:25:35.107Z,72.03
2023-01-17T17:29:02.928Z,71.96
2023-01-17T17:32:31.325Z,71.87
2023-01-17T17:36:02.354Z,71.80
2023-01-17T17:39:30.593Z,72.00
2023-01-17T17:42:57.733Z,71.81
2023-01-17T17:46:26.996Z,71.80
2023-01-17T17:49:54.072Z,71.79
2023-01-17T17:53:22.131Z,71.65
2023-01-17T17:56:49.314Z,71.65
2023-01-17T18:00:21.184Z,71.43
2023-01-17T18:03:52.513Z,71.41
2023-01-17T18:07:26.129Z,71.42
2023-01-17T18:11:01.072Z,71.33
2023-01-17T18:14:33.274Z,71.59
2023-01-17T18:18:03.621Z,71.28
2023-01-17T18:21:33.400Z,71.58
2023-01-17T18:25:01.056Z,71.32
2023-01-17T18:28:28.600Z,71.06
2023-01-17T18:31:57.876Z,71.23
2023-01-17T18:35:30.535Z,71.01
2023-01-17T18:38:59.020Z,71.15
2023-01-17T18:42:34.625Z,71.22
2023-01-17T18:46:06.101Z,71.24
2023-01-17T18:49:37.510Z,71.63
2023-01-17T18:53:06.655Z,71.59
2023-01-17T18:56:37.870Z,71.59
2023-01-17T19:00:08.835Z,71.46
2023-01-17T19:03:38.046Z,71.15
2023-01-17T19:07:08.159Z,71.42
2023-01-17T19:10:36.569Z,71.11
2023-01-17T19:14:09.207Z,70.91
2023-01-17T19:17:38.514Z,71.06
2023-01-17T19:21:11.924Z,71.16
2023-01-17T19:24:42.028Z,70.92
2023-01-17T19:28:13.575Z,71.10
2023-01-17T19:31:43.710Z,71.04
2023-01-17T19:35:14.180Z,70.95
2023-01-17T19:38:47.314Z,71.17
2023-01-17T19:42:22.341Z,71.08
2023-01-17T19:46:00.391Z,71.20
2023-01-17T19:49:32.479Z,71.01
2023-01-17T19:53:16.769Z,71.29
2023-01-17T19:56:43.880Z,70.80
2023-01-17T20:00:18.437Z,70.98
2023-01-17T20:03:49.525Z,71.19
2023-01-17T20:07:18.740Z,71.40
2023-01-17T20:10:47.236Z,71.39
2023-01-17T20:14:28.178Z,71.53
2023-01-17T20:17:57.056Z,71.96
2023-01-17T20:21:31.864Z,71.37
2023-01-17T20:25:15.676Z,71.32
2023-01-17T20:28:47.756Z,71.21
2023-01-17T20:32:20.917Z,71.27
2023-01-17T20:35:58.139Z,71.12
2023-01-17T20:39:33.788Z,71.08
2023-01-17T20:43:06.244Z,70.93
2023-01-17T20:46:40.629Z,71.06
2023-01-17T20:50:11.310Z,70.72
2023-01-17T20:53:40.239Z,70.73
2023-01-17T20:57:10.856Z,70.97
2023-01-17T21:00:51.984Z,70.85
2023-01-17T21:04:28.239Z,70.84
2023-01-17T21:07:56.821Z,70.69
2023-01-17T21:11:27.855Z,70.78
2023-01-17T21:14:55.963Z,70.76
2023-01-17T21:18:25.125Z,70.71
2023-01-17T21:21:52.148Z,70.50
2023-01-17T21:25:21.849Z,70.59
2023-01-17T21:28:51.440Z,70.49
2023-01-17T21:32:23.313Z,70.81
2023-01-17T21:35:51.201Z,71.05
2023-01-17T21:39:22.381Z,71.02
2023-01-17T21:42:54.122Z,71.25
2023-01-17T21:46:26.366Z,71.28
2023-01-17T21:49:57.152Z,71.27
2023-01-17T21:53:28.011Z,71.24
2023-01-17T21:57:12.610Z,71.15
2023-01-17T22:00:45.596Z,71.05
2023-01-17T22:04:16.205Z,71.13
2023-01-17T22:08:05.968Z,70.95
2023-01-17T22:11:34.388Z,71.01
2023-01-17T22:15:02.608Z,71.15
2023-01-17T22:18:37.974Z,71.18
2023-01-17T22:22:05.525Z,71.26
2023-01-17T22:25:34.388Z,71.23
2023-01-17T22:29:03.992Z,71.35
2023-01-17T22:32:32.656Z,71.28
2023-01-17T22:36:03.415Z,71.34
2023-01-17T22:39:30.780Z,71.32
2023-01-17T22:43:01.085Z,71.34
2023-01-17T22:46:29.881Z,71.29
2023-01-17T22:49:57.786Z,71.37
2023-01-17T22:53:27.142Z,71.47
2023-01-17T22:56:55.439Z,71.69
2023-01-17T23:00:23.844Z,71.90
2023-01-17T23:03:55.371Z,71.87
2023-01-17T23:07:27.241Z,71.95
2023-01-17T23:11:12.510Z,71.90
2023-01-17T23:14:59.328Z,71.75
2023-01-17T23:18:56.416Z,71.79
2023-01-17T23:22:28.263Z,71.56
2023-01-17T23:26:01.211Z,71.34
2023-01-17T23:29:28.323Z,71.39
2023-01-17T23:32:56.928Z,71.46
2023-01-17T23:36:24.351Z,71.56
2023-01-17T23:39:53.700Z,71.54
2023-01-17T23:43:24.860Z,71.60
2023-01-17T23:46:52.792Z,71.54
2023-01-17T23:50:20.951Z,71.55
2023-01-17T23:53:48.449Z,71.68
2023-01-17T23:57:15.816Z,71.78
